Weather at Lancaster Airport

Public forecast

Using degrees Fahrenheit for public forecast. Weather courtesy of forecast.io.

Current aviation weather report (METAR) for Lancaster Airport

Retrieved 2021/05/12 17:53 UTC (25 minutes ago):

KLNS 121753Z 35005KT 10SM FEW060 18/03 A3020 RMK AO2 SLP227 T01830028 10189 20094 58014

Aviation forecast (TAF) for Lancaster Airport

Retrieved 2021/05/12 18:24 UTC (0 seconds ago):

TAF KLNS 121722Z 1218/1318 01008G14KT P6SM FEW060 FM121900 32012G24KT P6SM FEW050 FM130100 33006KT P6SM SKC FM130300 28003KT P6SM SKC FM131400 32006KT P6SM FEW060